Terminal Aerodrome Forecast
Issued by NWS

Current Version | Previous Version | Text Only | Print | Product List | Glossary Off
Versions: 1 2 3 4 5 6 7 8 9 10 11 12 13 14 15 16 17 18 19 20 21 22 23 24 25 26 27 28 29 30 31 32 33 34 35 36 37 38 39 40 41 42 43 44 45 46 47 48 49

365
FTUS41 KRNK 300536
TAFLWB
TAF
KLWB 300536Z 3006/3106 00000KT P6SM SKC
     FM300800 00000KT 1/4SM FG BKN001
     FM301400 VRB03KT P6SM BKN035
     FM301600 25004KT P6SM BKN050
      TEMPO 3020/3022 3SM TSRA OVC035CB
     FM310100 VRB03KT P6SM SCT070=

USA.gov is the U.S. government's official web portal to all federal, state and local government web resources and services.